createdAt,value
2023-02-08T00:00:55.106Z,91.67
2023-02-08T00:03:22.428Z,91.93
2023-02-08T00:05:50.215Z,92.90
2023-02-08T00:08:17.310Z,92.47
2023-02-08T00:10:44.351Z,92.86
2023-02-08T00:13:11.429Z,92.91
2023-02-08T00:15:45.843Z,92.67
2023-02-08T00:18:13.157Z,91.37
2023-02-08T00:20:42.165Z,92.18
2023-02-08T00:23:09.238Z,91.82
2023-02-08T00:25:36.715Z,92.16
2023-02-08T00:28:04.829Z,92.40
2023-02-08T00:30:32.516Z,90.91
2023-02-08T00:33:01.506Z,90.98
2023-02-08T00:35:29.407Z,91.73
2023-02-08T00:37:57.114Z,92.28
2023-02-08T00:40:27.075Z,92.08
2023-02-08T00:42:54.300Z,90.97
2023-02-08T00:45:21.330Z,91.51
2023-02-08T00:47:48.208Z,91.97
2023-02-08T00:50:15.554Z,91.25
2023-02-08T00:52:42.549Z,92.51
2023-02-08T00:55:09.629Z,92.51
2023-02-08T00:57:36.751Z,91.78
2023-02-08T01:00:06.085Z,91.60
2023-02-08T01:02:33.240Z,93.31
2023-02-08T01:05:00.174Z,93.11
2023-02-08T01:07:27.126Z,92.96
2023-02-08T01:09:54.027Z,93.16
2023-02-08T01:12:20.935Z,92.83
2023-02-08T01:14:47.900Z,93.30
2023-02-08T01:17:14.800Z,92.74
2023-02-08T01:19:42.604Z,92.98
2023-02-08T01:22:09.647Z,93.89
2023-02-08T01:24:36.637Z,93.37
2023-02-08T01:27:03.576Z,93.90
2023-02-08T01:29:30.553Z,94.03
2023-02-08T01:31:57.537Z,93.81
2023-02-08T01:34:27.355Z,93.68
2023-02-08T01:36:54.298Z,93.12
2023-02-08T01:39:21.299Z,93.94
2023-02-08T01:41:48.343Z,92.58
2023-02-08T01:44:15.235Z,92.97
2023-02-08T01:46:44.867Z,93.27
2023-02-08T01:49:26.898Z,93.08
2023-02-08T01:52:05.717Z,93.19
2023-02-08T01:54:40.877Z,92.60
2023-02-08T01:57:08.570Z,93.37
2023-02-08T01:59:49.984Z,93.09
2023-02-08T02:02:19.959Z,91.89
2023-02-08T02:04:48.976Z,91.49
2023-02-08T02:07:38.822Z,89.54
2023-02-08T02:10:22.653Z,90.42
2023-02-08T02:13:17.036Z,91.71
2023-02-08T02:16:05.975Z,91.74
2023-02-08T02:18:48.763Z,90.58
2023-02-08T02:21:34.588Z,90.18
2023-02-08T02:24:27.172Z,91.68
2023-02-08T02:27:40.971Z,90.36
2023-02-08T02:30:16.938Z,90.36
2023-02-08T02:33:22.452Z,90.11
2023-02-08T02:36:09.751Z,91.23
2023-02-08T02:39:11.946Z,90.66
2023-02-08T02:42:26.536Z,91.26
2023-02-08T02:45:11.444Z,90.94
2023-02-08T02:47:51.993Z,89.52
2023-02-08T02:50:37.424Z,90.90
2023-02-08T02:53:20.886Z,90.60
2023-02-08T02:55:56.570Z,91.08
2023-02-08T02:58:26.787Z,90.51
2023-02-08T03:00:56.542Z,90.77
2023-02-08T03:03:26.943Z,90.56
2023-02-08T03:06:00.265Z,90.79
2023-02-08T03:08:55.570Z,91.75
2023-02-08T03:11:27.179Z,90.14
2023-02-08T03:14:24.162Z,91.62
2023-02-08T03:17:04.639Z,90.32
2023-02-08T03:19:36.386Z,90.81
2023-02-08T03:22:23.877Z,89.19
2023-02-08T03:25:06.518Z,89.46
2023-02-08T03:27:36.128Z,90.82
2023-02-08T03:30:13.755Z,91.36
2023-02-08T03:33:20.528Z,91.21
2023-02-08T03:36:05.488Z,92.29
2023-02-08T03:38:39.923Z,91.74
2023-02-08T03:41:10.981Z,90.89
2023-02-08T03:43:47.709Z,92.24
2023-02-08T03:46:21.901Z,90.45
2023-02-08T03:48:54.622Z,91.25
2023-02-08T03:51:23.427Z,91.91
2023-02-08T03:53:52.963Z,91.43
2023-02-08T03:56:48.659Z,90.60
2023-02-08T03:59:22.839Z,91.41
2023-02-08T04:02:01.589Z,91.24
2023-02-08T04:04:34.333Z,91.73
2023-02-08T04:07:01.433Z,92.73
2023-02-08T04:09:28.537Z,93.84
2023-02-08T04:11:55.488Z,94.22
2023-02-08T04:14:22.358Z,93.45
2023-02-08T04:16:49.286Z,94.74
2023-02-08T04:19:16.245Z,94.35
2023-02-08T04:21:43.167Z,94.82
2023-02-08T04:24:10.228Z,94.65
2023-02-08T04:26:37.145Z,93.45
2023-02-08T04:29:04.094Z,94.96
2023-02-08T04:31:31.149Z,94.72
2023-02-08T04:33:58.229Z,96.00
2023-02-08T04:36:25.339Z,95.77
2023-02-08T04:38:52.247Z,95.10
2023-02-08T04:41:19.329Z,94.72
2023-02-08T04:43:46.288Z,95.13
2023-02-08T04:46:13.247Z,96.51
2023-02-08T04:48:40.338Z,96.46
2023-02-08T04:51:07.195Z,94.99
2023-02-08T04:53:35.094Z,94.71
2023-02-08T04:56:02.028Z,94.59
2023-02-08T04:58:28.973Z,96.06
2023-02-08T05:00:55.862Z,95.02
2023-02-08T05:03:22.859Z,95.87
2023-02-08T05:06:01.132Z,96.09
2023-02-08T05:08:28.551Z,95.84
2023-02-08T05:10:55.571Z,96.89
2023-02-08T05:13:22.507Z,97.19
2023-02-08T05:15:49.460Z,96.55
2023-02-08T05:18:16.622Z,97.42
2023-02-08T05:20:43.641Z,96.54
2023-02-08T05:23:10.614Z,95.77
2023-02-08T05:25:39.492Z,95.43
2023-02-08T05:28:06.533Z,95.54
2023-02-08T05:30:33.539Z,95.04
2023-02-08T05:33:00.455Z,95.53
2023-02-08T05:35:27.490Z,95.57
2023-02-08T05:37:54.342Z,96.35
2023-02-08T05:40:21.664Z,94.80
2023-02-08T05:42:48.548Z,95.02
2023-02-08T05:45:15.600Z,94.22
2023-02-08T05:47:42.961Z,95.38
2023-02-08T05:50:10.719Z,95.29
2023-02-08T05:52:37.651Z,94.19
2023-02-08T05:55:04.950Z,94.73
2023-02-08T05:57:34.290Z,95.75
2023-02-08T06:00:03.512Z,95.75
2023-02-08T06:02:30.722Z,95.54
2023-02-08T06:04:57.615Z,95.08
2023-02-08T06:07:24.553Z,94.44
2023-02-08T06:09:51.473Z,95.22
2023-02-08T06:12:18.393Z,93.94
2023-02-08T06:14:45.316Z,94.86
2023-02-08T06:17:12.363Z,93.39
2023-02-08T06:19:39.288Z,93.94
2023-02-08T06:22:06.203Z,94.08
2023-02-08T06:24:33.144Z,92.68
2023-02-08T06:27:00.062Z,93.88
2023-02-08T06:29:27.005Z,94.99
2023-02-08T06:31:54.099Z,95.22
2023-02-08T06:34:21.118Z,94.25
2023-02-08T06:36:48.046Z,95.40
2023-02-08T06:39:14.980Z,95.23
2023-02-08T06:41:41.877Z,95.82
2023-02-08T06:44:08.787Z,96.16
2023-02-08T06:46:35.677Z,96.75
2023-02-08T06:49:02.628Z,96.87
2023-02-08T06:51:29.499Z,96.04
2023-02-08T06:53:56.442Z,96.50
2023-02-08T06:56:23.391Z,95.99
2023-02-08T06:58:50.299Z,96.70
2023-02-08T07:01:17.262Z,95.82
2023-02-08T07:03:44.246Z,97.22
2023-02-08T07:06:19.476Z,96.10
2023-02-08T07:08:48.248Z,95.67
2023-02-08T07:11:18.265Z,96.10
2023-02-08T07:13:50.493Z,94.21
2023-02-08T07:16:19.675Z,95.34
2023-02-08T07:18:47.207Z,93.71
2023-02-08T07:21:14.242Z,94.07
2023-02-08T07:23:41.293Z,93.49
2023-02-08T07:26:10.995Z,92.28
2023-02-08T07:28:38.657Z,92.62
2023-02-08T07:31:14.510Z,92.80
2023-02-08T07:33:41.781Z,92.82
2023-02-08T07:36:10.778Z,92.27
2023-02-08T07:38:38.363Z,91.07
2023-02-08T07:41:08.519Z,91.56
2023-02-08T07:43:37.036Z,90.83
2023-02-08T07:46:14.624Z,90.09
2023-02-08T07:48:42.185Z,89.91
2023-02-08T07:51:10.316Z,89.53
2023-02-08T07:53:37.970Z,88.06
2023-02-08T07:56:05.739Z,87.30
2023-02-08T07:58:32.662Z,86.68
2023-02-08T08:01:06.912Z,85.48
2023-02-08T08:03:39.417Z,84.08
2023-02-08T08:06:06.697Z,84.40
2023-02-08T08:08:33.756Z,83.60
2023-02-08T08:11:03.458Z,84.04
2023-02-08T08:13:30.645Z,82.65
2023-02-08T08:15:57.663Z,81.62
2023-02-08T08:18:24.686Z,80.40
2023-02-08T08:20:51.636Z,80.01
2023-02-08T08:23:19.890Z,78.31
2023-02-08T08:25:47.104Z,79.12
2023-02-08T08:28:14.313Z,77.96
2023-02-08T08:30:45.535Z,78.63
2023-02-08T08:33:14.244Z,77.88
2023-02-08T08:35:42.815Z,77.15
2023-02-08T08:38:10.266Z,77.14
2023-02-08T08:40:37.121Z,77.75
2023-02-08T08:43:04.035Z,77.65
2023-02-08T08:45:30.945Z,77.36
2023-02-08T08:47:58.722Z,76.91
2023-02-08T08:50:25.616Z,76.73
2023-02-08T08:52:53.391Z,73.32
2023-02-08T08:55:20.333Z,73.29
2023-02-08T08:57:47.267Z,73.38
2023-02-08T09:00:14.870Z,74.21
2023-02-08T09:02:41.750Z,74.03
2023-02-08T09:05:08.893Z,73.95
2023-02-08T09:07:35.879Z,73.42
2023-02-08T09:10:03.067Z,73.98
2023-02-08T09:12:29.975Z,73.08
2023-02-08T09:14:56.983Z,72.83
2023-02-08T09:17:24.270Z,74.30
2023-02-08T09:19:51.308Z,76.05
2023-02-08T09:22:18.962Z,75.86
2023-02-08T09:24:46.067Z,74.77
2023-02-08T09:27:13.037Z,73.89
2023-02-08T09:29:40.059Z,74.64
2023-02-08T09:32:08.362Z,76.22
2023-02-08T09:34:36.625Z,74.01
2023-02-08T09:37:03.579Z,73.67
2023-02-08T09:39:30.545Z,73.69
2023-02-08T09:42:14.414Z,73.71
2023-02-08T09:44:48.802Z,74.05
2023-02-08T09:47:30.480Z,75.23
2023-02-08T09:50:39.754Z,73.93
2023-02-08T09:53:27.671Z,72.48
2023-02-08T09:56:01.972Z,73.49
2023-02-08T09:58:40.603Z,75.12
2023-02-08T10:01:23.237Z,76.81
2023-02-08T10:03:56.086Z,75.15
2023-02-08T10:06:23.089Z,76.50
2023-02-08T10:08:52.755Z,74.26
2023-02-08T10:11:38.237Z,73.98
2023-02-08T10:14:29.784Z,73.02
2023-02-08T10:17:33.282Z,70.83
2023-02-08T10:20:24.658Z,70.44
2023-02-08T10:23:05.738Z,72.97
2023-02-08T10:25:54.184Z,72.85
2023-02-08T10:28:59.675Z,72.56
2023-02-08T10:32:00.271Z,73.26
2023-02-08T10:34:50.399Z,73.49
2023-02-08T10:37:20.518Z,73.08
2023-02-08T10:39:50.224Z,72.76
2023-02-08T10:42:22.588Z,73.29
2023-02-08T10:45:12.729Z,73.65
2023-02-08T10:47:54.577Z,74.08
2023-02-08T10:50:39.248Z,75.59
2023-02-08T10:53:06.914Z,73.29
2023-02-08T10:55:39.867Z,74.04
2023-02-08T10:58:07.428Z,73.81
2023-02-08T11:00:39.535Z,71.56
2023-02-08T11:03:25.177Z,72.68
2023-02-08T11:05:53.347Z,73.92
2023-02-08T11:08:25.818Z,71.20
2023-02-08T11:11:03.794Z,71.83
2023-02-08T11:13:46.026Z,72.80
2023-02-08T11:16:22.593Z,70.54
2023-02-08T11:18:57.049Z,70.09
2023-02-08T11:21:26.200Z,68.62
2023-02-08T11:23:55.802Z,67.79
2023-02-08T11:26:33.245Z,66.94
2023-02-08T11:29:08.835Z,66.97
2023-02-08T11:31:36.882Z,66.34
2023-02-08T11:34:11.570Z,65.67
2023-02-08T11:36:47.102Z,64.48
2023-02-08T11:39:49.990Z,66.08
2023-02-08T11:42:26.677Z,65.32
2023-02-08T11:44:55.831Z,67.93
2023-02-08T11:47:35.644Z,69.16
2023-02-08T11:50:06.137Z,70.29
2023-02-08T11:52:39.534Z,70.85
2023-02-08T11:55:35.900Z,70.99
2023-02-08T11:58:20.586Z,72.15
2023-02-08T12:01:18.148Z,71.44
2023-02-08T12:03:48.306Z,71.94
2023-02-08T12:06:17.953Z,72.63
2023-02-08T12:08:44.895Z,71.29
2023-02-08T12:11:38.140Z,71.10
2023-02-08T12:14:35.789Z,70.03
2023-02-08T12:17:17.831Z,67.44
2023-02-08T12:19:50.665Z,68.23
2023-02-08T12:22:27.217Z,66.23
2023-02-08T12:25:10.649Z,65.67
2023-02-08T12:27:53.155Z,66.78
2023-02-08T12:30:30.602Z,68.37
2023-02-08T12:33:22.927Z,67.24
2023-02-08T12:36:04.090Z,66.79
2023-02-08T12:39:10.389Z,66.44
2023-02-08T12:41:55.929Z,65.70
2023-02-08T12:44:30.602Z,66.76
2023-02-08T12:47:24.104Z,66.66
2023-02-08T12:49:56.944Z,65.97
2023-02-08T12:52:31.681Z,65.05
2023-02-08T12:55:11.275Z,67.02
2023-02-08T12:57:40.114Z,65.74
2023-02-08T13:00:16.519Z,65.29
2023-02-08T13:02:57.728Z,65.98
2023-02-08T13:05:31.887Z,65.30
2023-02-08T13:08:35.303Z,64.70
2023-02-08T13:11:19.133Z,64.54
2023-02-08T13:14:04.952Z,64.98
2023-02-08T13:16:42.959Z,64.97
2023-02-08T13:19:59.726Z,63.58
2023-02-08T13:22:27.743Z,63.25
2023-02-08T13:25:06.780Z,64.33
2023-02-08T13:27:34.686Z,61.89
2023-02-08T13:30:02.328Z,63.98
2023-02-08T13:32:42.108Z,64.01
2023-02-08T13:35:18.789Z,63.48
2023-02-08T13:38:21.922Z,64.59
2023-02-08T13:41:08.917Z,63.55
2023-02-08T13:43:49.001Z,63.38
2023-02-08T13:46:18.174Z,62.74
2023-02-08T13:48:54.426Z,63.29
2023-02-08T13:51:33.477Z,63.06
2023-02-08T13:54:00.610Z,62.51
2023-02-08T13:56:45.440Z,63.58
2023-02-08T13:59:27.477Z,65.11
2023-02-08T14:02:30.481Z,64.39
2023-02-08T14:05:38.486Z,64.94
2023-02-08T14:08:08.814Z,64.64
2023-02-08T14:10:43.609Z,64.91
2023-02-08T14:13:16.597Z,65.59
2023-02-08T14:15:44.316Z,66.54
2023-02-08T14:18:26.015Z,66.75
2023-02-08T14:21:04.288Z,67.75
2023-02-08T14:23:35.230Z,68.04
2023-02-08T14:26:11.169Z,68.26
2023-02-08T14:28:44.453Z,67.77
2023-02-08T14:31:15.359Z,67.88
2023-02-08T14:33:53.538Z,67.95
2023-02-08T14:36:32.173Z,67.11
2023-02-08T14:39:27.269Z,66.69
2023-02-08T14:42:01.387Z,67.42
2023-02-08T14:44:43.503Z,68.42
2023-02-08T14:47:25.960Z,68.94
2023-02-08T14:50:26.388Z,68.83
2023-02-08T14:53:20.012Z,68.74
2023-02-08T14:55:52.381Z,68.47
2023-02-08T14:58:31.329Z,69.82
2023-02-08T15:01:03.385Z,68.57
2023-02-08T15:03:32.762Z,69.13
2023-02-08T15:06:21.041Z,69.42
2023-02-08T15:08:55.653Z,70.03
2023-02-08T15:11:30.228Z,68.88
2023-02-08T15:14:01.236Z,69.23
2023-02-08T15:16:41.163Z,69.79
2023-02-08T15:19:10.404Z,70.17
2023-02-08T15:21:37.620Z,69.53
2023-02-08T15:24:17.556Z,69.87
2023-02-08T15:26:58.150Z,70.68
2023-02-08T15:29:42.941Z,71.47
2023-02-08T15:32:18.148Z,71.17
2023-02-08T15:34:51.157Z,71.06
2023-02-08T15:37:19.487Z,71.48
2023-02-08T15:39:51.074Z,70.90
2023-02-08T15:42:30.211Z,70.22
2023-02-08T15:44:57.446Z,71.22
2023-02-08T15:47:38.032Z,70.18
2023-02-08T15:50:15.263Z,70.31
2023-02-08T15:52:42.578Z,70.12
2023-02-08T15:55:17.788Z,72.26
2023-02-08T15:57:56.163Z,71.68
2023-02-08T16:00:32.225Z,71.70
2023-02-08T16:03:03.121Z,71.54
2023-02-08T16:05:31.885Z,71.62
2023-02-08T16:08:00.788Z,71.33
2023-02-08T16:10:46.780Z,71.84
2023-02-08T16:13:24.566Z,72.55
2023-02-08T16:16:07.131Z,72.41
2023-02-08T16:18:38.474Z,72.75
2023-02-08T16:21:27.044Z,74.14
2023-02-08T16:23:56.929Z,73.70
2023-02-08T16:26:23.796Z,74.14
2023-02-08T16:29:08.951Z,75.45
2023-02-08T16:31:36.270Z,75.56
2023-02-08T16:34:07.038Z,77.10
2023-02-08T16:36:39.626Z,76.64
2023-02-08T16:39:16.340Z,76.90
2023-02-08T16:42:06.393Z,77.18
2023-02-08T16:45:01.530Z,78.45
2023-02-08T16:47:45.327Z,78.98
2023-02-08T16:50:15.424Z,78.86
2023-02-08T16:52:42.589Z,79.26
2023-02-08T16:55:21.939Z,79.15
2023-02-08T16:57:55.317Z,79.79
2023-02-08T17:00:32.238Z,79.01
2023-02-08T17:03:00.439Z,79.89
2023-02-08T17:05:30.356Z,80.17
2023-02-08T17:07:58.374Z,80.92
2023-02-08T17:10:28.733Z,81.36
2023-02-08T17:13:09.825Z,80.47
2023-02-08T17:15:44.167Z,80.76
2023-02-08T17:18:13.090Z,80.69
2023-02-08T17:20:40.830Z,80.89
2023-02-08T17:23:08.048Z,82.46
2023-02-08T17:25:35.981Z,84.86
2023-02-08T17:28:07.128Z,82.44
2023-02-08T17:30:39.348Z,81.72
2023-02-08T17:33:07.784Z,82.78
2023-02-08T17:35:37.255Z,81.86
2023-02-08T17:38:05.510Z,82.98
2023-02-08T17:40:37.019Z,83.72
2023-02-08T17:43:05.926Z,83.00
2023-02-08T17:45:39.432Z,83.83
2023-02-08T17:48:06.680Z,83.05
2023-02-08T17:50:34.213Z,83.45
2023-02-08T17:53:01.140Z,83.76
2023-02-08T17:55:28.074Z,84.07
2023-02-08T17:57:55.025Z,84.02
2023-02-08T18:00:24.195Z,83.01
2023-02-08T18:02:55.397Z,83.16
2023-02-08T18:05:26.246Z,82.54
2023-02-08T18:07:55.417Z,83.52
2023-02-08T18:10:23.713Z,83.32
2023-02-08T18:12:51.038Z,84.08
2023-02-08T18:15:21.537Z,84.17
2023-02-08T18:17:50.563Z,84.29
2023-02-08T18:20:18.504Z,85.49
2023-02-08T18:22:45.997Z,85.50
2023-02-08T18:25:14.649Z,86.79
2023-02-08T18:27:41.787Z,85.86
2023-02-08T18:30:10.204Z,85.75
2023-02-08T18:32:37.423Z,86.09
2023-02-08T18:35:06.740Z,86.05
2023-02-08T18:37:34.187Z,85.42
2023-02-08T18:40:01.150Z,85.12
2023-02-08T18:42:28.776Z,83.81
2023-02-08T18:44:55.835Z,85.19
2023-02-08T18:47:22.781Z,86.79
2023-02-08T18:49:54.797Z,87.11
2023-02-08T18:52:23.902Z,88.79
2023-02-08T18:54:51.254Z,89.27
2023-02-08T18:57:18.838Z,91.18
2023-02-08T18:59:45.787Z,90.85
2023-02-08T19:02:18.908Z,89.80
2023-02-08T19:04:45.852Z,88.73
2023-02-08T19:07:13.702Z,88.99
2023-02-08T19:09:41.339Z,88.72
2023-02-08T19:12:09.406Z,89.54
2023-02-08T19:14:36.533Z,89.66
2023-02-08T19:17:03.795Z,90.93
2023-02-08T19:19:30.793Z,91.60
2023-02-08T19:21:57.737Z,91.16
2023-02-08T19:24:25.334Z,90.24
2023-02-08T19:26:52.364Z,89.43
2023-02-08T19:29:23.035Z,89.50
2023-02-08T19:31:50.640Z,89.60
2023-02-08T19:34:18.324Z,89.67
2023-02-08T19:36:52.658Z,90.87
2023-02-08T19:39:25.041Z,91.15
2023-02-08T19:41:55.721Z,91.08
2023-02-08T19:44:23.054Z,91.45
2023-02-08T19:46:53.168Z,91.17
2023-02-08T19:49:20.995Z,90.26
2023-02-08T19:51:48.391Z,90.33
2023-02-08T19:54:18.048Z,89.86
2023-02-08T19:56:45.917Z,90.56
2023-02-08T19:59:35.204Z,89.58
2023-02-08T20:02:02.552Z,91.98
2023-02-08T20:04:29.940Z,92.77
2023-02-08T20:06:56.870Z,92.47
2023-02-08T20:09:23.853Z,91.71
2023-02-08T20:12:00.092Z,90.63
2023-02-08T20:14:33.121Z,88.44
2023-02-08T20:17:01.762Z,87.69
2023-02-08T20:19:29.479Z,88.65
2023-02-08T20:21:56.443Z,88.03
2023-02-08T20:24:23.385Z,87.59
2023-02-08T20:26:50.460Z,89.72
2023-02-08T20:29:17.725Z,91.49
2023-02-08T20:31:47.870Z,92.81
2023-02-08T20:34:16.531Z,94.09
2023-02-08T20:37:06.894Z,93.72
2023-02-08T20:39:35.495Z,93.36
2023-02-08T20:42:02.944Z,94.50
2023-02-08T20:44:31.123Z,92.86
2023-02-08T20:46:58.077Z,91.58
2023-02-08T20:49:26.704Z,92.42
2023-02-08T20:51:54.705Z,91.94
2023-02-08T20:54:24.736Z,93.63
2023-02-08T20:56:53.181Z,93.21
2023-02-08T20:59:20.438Z,93.08
2023-02-08T21:01:47.643Z,92.86
2023-02-08T21:04:17.274Z,92.02
2023-02-08T21:06:46.515Z,92.32
2023-02-08T21:09:16.187Z,94.31
2023-02-08T21:11:44.125Z,94.58
2023-02-08T21:14:19.282Z,93.98
2023-02-08T21:16:58.917Z,93.87
2023-02-08T21:19:28.839Z,94.90
2023-02-08T21:21:59.194Z,95.21
2023-02-08T21:24:28.332Z,95.39
2023-02-08T21:26:57.037Z,95.95
2023-02-08T21:29:24.877Z,96.53
2023-02-08T21:31:54.543Z,96.27
2023-02-08T21:34:21.845Z,96.96
2023-02-08T21:36:48.867Z,96.48
2023-02-08T21:39:15.732Z,97.50
2023-02-08T21:41:42.686Z,97.99
2023-02-08T21:44:11.084Z,97.85
2023-02-08T21:46:38.018Z,97.50
2023-02-08T21:49:23.648Z,98.64
2023-02-08T21:52:09.394Z,97.89
2023-02-08T21:54:42.363Z,98.72
2023-02-08T21:57:13.114Z,98.75
2023-02-08T21:59:41.020Z,99.22
2023-02-08T22:02:16.631Z,98.52
2023-02-08T22:05:01.960Z,97.36
2023-02-08T22:07:29.178Z,96.06
2023-02-08T22:09:56.335Z,95.96
2023-02-08T22:12:23.791Z,96.37
2023-02-08T22:14:51.095Z,95.20
2023-02-08T22:17:18.261Z,96.24
2023-02-08T22:19:45.192Z,94.22
2023-02-08T22:22:12.212Z,96.13
2023-02-08T22:24:39.273Z,95.85
2023-02-08T22:27:06.209Z,95.65
2023-02-08T22:29:33.603Z,94.47
2023-02-08T22:32:01.335Z,94.34
2023-02-08T22:34:28.575Z,94.48
2023-02-08T22:36:55.606Z,94.77
2023-02-08T22:39:22.760Z,93.40
2023-02-08T22:41:49.772Z,91.79
2023-02-08T22:44:16.806Z,89.17
2023-02-08T22:46:43.728Z,90.70
2023-02-08T22:49:10.782Z,91.34
2023-02-08T22:51:37.946Z,93.19
2023-02-08T22:54:05.109Z,93.51
2023-02-08T22:56:32.044Z,92.82
2023-02-08T22:59:00.383Z,94.35
2023-02-08T23:01:27.808Z,94.71
2023-02-08T23:03:54.801Z,95.40
2023-02-08T23:06:21.714Z,95.03
2023-02-08T23:08:49.080Z,94.86
2023-02-08T23:11:16.424Z,93.82
2023-02-08T23:13:43.352Z,94.81
2023-02-08T23:16:16.112Z,95.22
2023-02-08T23:18:43.397Z,95.20
2023-02-08T23:21:13.614Z,95.00
2023-02-08T23:23:41.347Z,94.18
2023-02-08T23:26:10.777Z,94.20
2023-02-08T23:28:37.794Z,95.27
2023-02-08T23:31:06.761Z,93.56
2023-02-08T23:33:34.397Z,94.06
2023-02-08T23:36:05.797Z,93.08
2023-02-08T23:38:32.765Z,92.46
2023-02-08T23:41:04.227Z,93.68
2023-02-08T23:43:31.475Z,94.47
2023-02-08T23:45:58.883Z,94.14
2023-02-08T23:48:25.792Z,91.17
2023-02-08T23:51:00.277Z,92.02
2023-02-08T23:53:30.366Z,93.52
2023-02-08T23:56:20.850Z,93.81
2023-02-08T23:58:50.112Z,94.06
